KZZV/ZZV METAR and TAF weather

Enter ICAO airport designator
Station Type Date Time Source
KZZV METAR 2020/03/28 13:53 UTC NOAA

KZZV 281353Z AUTO 20008KT 10SM FEW048 17/14 A2978 RMK AO2 SLP083 T01720144


Station Type Date Time Source
KZZV Decoded METAR 2020/03/28 13:53 UTC NOAA

ZANESVILLE MUNICIPAL AIRPORT , OH, United States (KZZV) 39-57N 81-54W 268M
Mar 28, 2020 - 09:53 AM EDT / 2020.03.28 1353 UTC
Wind: from the SSW (200 degrees) at 9 MPH (8 KT):0
Visibility: 10 mile(s):0
Sky conditions: mostly clear
Temperature: 63.0 F (17.2 C)
Dew Point: 57.9 F (14.4 C)
Relative Humidity: 83%
Pressure (altimeter): 29.78 in. Hg (1008 hPa)
ob: KZZV 281353Z AUTO 20008KT 10SM FEW048 17/14 A2978 RMK AO2 SLP083 T01720144
cycle: 14

Station Type Date Time Source
KZZV TAF 2020/03/28 12:42 UTC NOAA

TAF KZZV 281139Z 2812/2912 12003KT P6SM SKC
FM281400 18010KT P6SM BKN035
FM281900 21010G18KT P6SM VCTS BKN025CB
FM282300 22008KT P6SM BKN040
FM290800 19010KT P6SM -SHRA OVC035 WS020/22040KT

Example: see airport list